Huvudsida
METAR-TAF:

METAR-TAF

Flygplatser :

Seinäjoki flygplats

Seinäjoki-Ilmola, Finland

latitud: 62-41-37N, longitud: 022-49-55E, höjd: 91 m

Aktuellt väderrapport

Denna rapport gjordes för 20 minuter sedan, klockan 20:20 UTC
Vind 5 kt från ost, varierande mellan nordost och ost
Temperatur -5°C
Fuktighet 86%
Tryck 1009 hPa
Sikt 10 km eller mer
Brutna moln på en höjd av 1400 ft

METAR: EFSI 262020Z AUTO 08005KT 040V100 9999 BKN014 M05/M07 Q1009

Tid: 22:40 (20:40 UTC)


TAF: saknas

Aktuella väderrapporter och prognoser från 4000 flygplatser (METAR- och TAF-rapporter).

De tillgängliga stationerna syns som gula och röda prickar på kartan.

För musen över prickarna för att se namnen på stationerna.

Klicka sedan för att få väderrapporter och prognoser.

För att ändra kartan: Klicka på de gröna knapparna med ett svart kors på för att zooma in; den gröna knappen med ett streck på för att zooma ut; eller på de gröna pilarna för angränsande kartor.


METAR-TAF: